Time;durP1;ratioP1;P1;durP2;ratioP2;P2;SDS_P1;SDS_P2;PMS_P1;PMS_P2;Temp;Humidity;BMP_temperature;BMP_pressure;BME280_temperature;BME280_humidity;BME280_pressure;Samples;Min_cycle;Max_cycle;Signal;HPM_P1;HPM_P2
2023/01/03 00:02:01;;;;;;;54.37;37.60;;;;;;;6.49;91.90;100554.22;5051490;28;20223;-58
2023/01/03 00:04:28;;;;;;;54.97;38.50;;;;;;;6.46;92.31;100556.63;5060178;28;20244;-58
2023/01/03 00:06:55;;;;;;;56.73;38.80;;;;;;;6.42;92.41;100558.19;5071880;28;20189;-57
2023/01/03 00:09:24;;;;;;;57.57;39.80;;;;;;;6.44;91.87;100551.47;5072335;28;20604;-57
2023/01/03 00:14:40;;;;;;;64.70;40.43;;;;;;;6.46;92.12;100561.75;5072098;28;20276;-57
2023/01/03 00:17:08;;;;;;;52.70;37.93;;;;;;;6.45;92.45;100563.44;5072085;28;20566;-57
2023/01/03 00:19:37;;;;;;;52.50;37.50;;;;;;;6.47;91.83;100564.38;5071782;28;20205;-57
2023/01/03 00:22:04;;;;;;;53.30;37.70;;;;;;;6.46;92.38;100567.72;5071696;28;20219;-57
2023/01/03 00:24:31;;;;;;;57.10;37.47;;;;;;;6.35;92.28;100545.00;5071611;28;20189;-58
2023/01/03 00:26:58;;;;;;;52.87;37.23;;;;;;;6.47;92.13;100561.84;5072136;28;20196;-57
2023/01/03 00:29:25;;;;;;;56.40;38.80;;;;;;;6.48;92.35;100553.34;5071632;28;20250;-57
2023/01/03 00:31:53;;;;;;;55.53;39.20;;;;;;;6.47;92.29;100546.50;5071612;28;20661;-58
2023/01/03 00:34:20;;;;;;;58.37;36.93;;;;;;;6.48;92.49;100553.34;5071310;28;20203;-58
2023/01/03 00:36:47;;;;;;;52.90;36.43;;;;;;;6.48;92.13;100553.34;5071475;28;20240;-58
2023/01/03 00:39:13;;;;;;;54.67;36.90;;;;;;;6.46;92.65;100561.75;5071654;28;20188;-58
2023/01/03 00:41:41;;;;;;;54.07;36.83;;;;;;;6.46;92.82;100549.84;5071567;28;20217;-58
2023/01/03 00:44:08;;;;;;;55.80;38.80;;;;;;;6.23;92.39;100517.25;5067560;28;20198;-58
2023/01/03 00:46:35;;;;;;;52.63;37.43;;;;;;;6.45;92.31;100549.78;5066771;28;20202;-58
2023/01/03 00:49:05;;;;;;;59.13;38.37;;;;;;;6.39;91.94;100550.38;5071260;28;20578;-58
2023/01/03 00:51:35;;;;;;;52.67;36.33;;;;;;;6.42;92.54;100550.53;5072012;28;20203;-58
2023/01/03 00:54:04;;;;;;;52.70;37.63;;;;;;;6.43;91.65;100546.25;5071933;28;20198;-58
2023/01/03 00:56:33;;;;;;;54.43;37.77;;;;;;;6.37;91.80;100544.28;5075301;28;20194;-58
2023/01/03 00:59:00;;;;;;;58.57;38.80;;;;;;;6.34;91.32;100543.28;5075028;28;20559;-58
2023/01/03 01:01:30;;;;;;;55.70;39.60;;;;;;;6.24;91.57;100533.41;5075467;28;20586;-58
2023/01/03 01:04:00;;;;;;;54.13;37.17;;;;;;;6.25;92.32;100538.59;5075100;28;20623;-58
2023/01/03 01:06:30;;;;;;;57.43;39.27;;;;;;;6.14;92.07;100529.53;5075413;28;20280;-58
2023/01/03 01:08:58;;;;;;;57.33;38.83;;;;;;;6.22;91.92;100540.09;5066871;28;20210;-58
2023/01/03 01:11:27;;;;;;;52.63;38.53;;;;;;;6.15;92.27;100531.28;5062891;28;20203;-58
2023/01/03 01:13:55;;;;;;;53.20;38.43;;;;;;;6.16;91.83;100537.25;5059726;28;20720;-57
2023/01/03 01:16:23;;;;;;;62.83;47.75;;;;;;;6.19;92.84;100533.19;5053763;28;20434;-58
2023/01/03 01:18:52;;;;;;;57.17;42.77;;;;;;;6.22;92.08;100535.88;5054612;28;20187;-57
2023/01/03 01:21:21;;;;;;;57.63;40.17;;;;;;;6.22;92.22;100529.91;5054660;28;20191;-58
2023/01/03 01:23:51;;;;;;;56.93;39.90;;;;;;;5.94;92.31;100502.13;5054869;28;20193;-57
2023/01/03 01:26:20;;;;;;;55.00;39.67;;;;;;;6.01;92.60;100529.72;5054782;28;20654;-57
2023/01/03 01:28:48;;;;;;;52.63;38.50;;;;;;;5.95;93.15;100524.31;5065616;28;20684;-57
2023/01/03 01:31:16;;;;;;;52.87;37.87;;;;;;;5.88;93.17;100529.88;5074585;28;20214;-57
2023/01/03 01:33:44;;;;;;;58.33;38.77;;;;;;;5.79;93.17;100527.72;5074511;28;20612;-57
2023/01/03 01:36:16;;;;;;;58.50;37.83;;;;;;;5.79;92.95;100516.63;5074452;28;20574;-57
2023/01/03 01:38:44;;;;;;;53.40;38.10;;;;;;;5.70;93.57;100500.84;5074554;28;20196;-57
2023/01/03 01:41:14;;;;;;;54.70;37.33;;;;;;;5.71;93.83;100513.66;5074297;28;20199;-57
2023/01/03 01:46:46;;;;;;;54.37;34.10;;;;;;;5.60;94.09;100519.03;5074213;28;20218;-57
2023/01/03 01:49:18;;;;;;;48.63;35.10;;;;;;;5.50;94.05;100517.66;5074136;28;20659;-57
2023/01/03 01:51:44;;;;;;;45.83;33.90;;;;;;;5.46;93.91;100514.88;5074408;28;20230;-57
2023/01/03 01:54:12;;;;;;;45.93;31.80;;;;;;;5.37;95.20;100517.81;5073969;28;20242;-57
2023/01/03 01:56:43;;;;;;;45.23;30.57;;;;;;;5.31;94.88;100505.63;5074092;28;20206;-57
2023/01/03 01:59:11;;;;;;;41.77;29.57;;;;;;;5.26;95.23;100512.16;5074561;28;20194;-56
2023/01/03 02:01:39;;;;;;;41.30;30.87;;;;;;;5.22;94.85;100510.22;5072884;28;20188;-57
2023/01/03 02:04:11;;;;;;;38.90;30.10;;;;;;;5.28;94.79;100505.47;5073780;28;20703;-57
2023/01/03 02:06:38;;;;;;;41.37;30.20;;;;;;;5.29;94.70;100514.88;5073575;28;20191;-57
2023/01/03 02:09:05;;;;;;;43.03;30.70;;;;;;;5.29;94.73;100506.34;5072889;28;20243;-57
2023/01/03 02:13:04;;;;;;;33.80;25.33;;;;;;;5.33;94.65;100514.22;5074031;28;20224;-57
2023/01/03 02:14:57;;;;;;;36.57;25.77;;;;;;;5.36;95.05;100505.84;5073710;28;20707;-57
2023/01/03 02:17:37;;;;;;;36.57;26.57;;;;;;;5.26;94.59;100489.22;5073530;28;20183;-58
2023/01/03 02:20:18;;;;;;;32.67;25.90;;;;;;;4.91;94.45;100429.56;5073719;28;20186;-58
2023/01/03 02:23:19;;;;;;;38.00;26.17;;;;;;;5.34;95.17;100500.69;5073436;28;20228;-57
2023/01/03 02:26:33;;;;;;;39.33;32.03;;;;;;;5.39;95.53;100498.38;5072630;28;20805;-57
2023/01/03 02:29:33;;;;;;;38.87;29.33;;;;;;;5.36;94.66;100496.56;5073693;28;20201;-57
2023/01/03 02:32:08;;;;;;;43.73;29.33;;;;;;;5.30;94.92;100491.13;5073112;28;20194;-57
2023/01/03 02:34:40;;;;;;;38.97;28.87;;;;;;;5.28;95.06;100490.19;5072244;28;20550;-57
2023/01/03 02:37:15;;;;;;;42.27;29.50;;;;;;;5.27;94.65;100488.41;5073455;28;20193;-56
2023/01/03 02:39:48;;;;;;;36.97;27.37;;;;;;;5.24;95.52;100487.41;5073611;28;20189;-57
2023/01/03 02:45:12;;;;;;;41.10;28.23;;;;;;;5.26;95.64;100488.34;5073439;28;20276;-57
2023/01/03 02:47:46;;;;;;;38.67;27.63;;;;;;;5.27;95.51;100492.66;5073109;28;20196;-56
2023/01/03 02:50:14;;;;;;;38.10;26.87;;;;;;;5.28;95.65;100486.75;5073459;28;20197;-57
2023/01/03 02:52:43;;;;;;;33.43;26.07;;;;;;;5.23;95.22;100504.34;5073325;28;20245;-57
2023/01/03 02:55:16;;;;;;;42.83;29.93;;;;;;;5.20;95.80;100494.00;5073161;28;20616;-57
2023/01/03 02:57:49;;;;;;;35.93;27.37;;;;;;;5.12;95.30;100490.16;5073222;28;20193;-56
2023/01/03 03:00:20;;;;;;;38.37;28.90;;;;;;;5.15;95.95;100497.97;5073089;28;20186;-57
2023/01/03 03:02:51;;;;;;;41.30;28.93;;;;;;;5.16;95.20;100491.22;5072691;28;20218;-57
2023/01/03 03:05:24;;;;;;;32.83;26.90;;;;;;;5.12;95.26;100497.81;5073193;28;20189;-57
2023/01/03 03:07:52;;;;;;;36.47;27.03;;;;;;;5.12;95.54;100496.91;5072243;28;20196;-56
2023/01/03 03:13:13;;;;;;;36.30;27.23;;;;;;;5.10;94.23;100494.31;5072436;28;20263;-57
2023/01/03 03:15:51;;;;;;;37.90;26.53;;;;;;;5.06;94.68;100496.59;5072598;28;20719;-57
2023/01/03 03:18:24;;;;;;;35.13;26.30;;;;;;;4.80;94.93;100459.56;5072348;28;20239;-57
2023/01/03 03:26:31;;;;;;;38.43;26.80;;;;;;;4.91;95.10;100491.56;5072550;28;20566;-57
2023/01/03 03:29:03;;;;;;;40.63;32.90;;;;;;;5.03;95.97;100488.78;5071735;28;20426;-57
2023/01/03 03:31:34;;;;;;;36.57;26.73;;;;;;;5.00;95.06;100469.13;5071699;28;20200;-57
2023/01/03 03:34:09;;;;;;;34.33;26.50;;;;;;;5.05;94.76;100488.09;5072357;28;20202;-57
2023/01/03 03:36:43;;;;;;;32.80;26.57;;;;;;;5.07;94.49;100483.94;5072112;28;20191;-57
2023/01/03 03:45:02;;;;;;;33.60;23.90;;;;;;;4.98;94.13;100478.34;5072386;28;20327;-57
2023/01/03 03:47:37;;;;;;;29.70;22.73;;;;;;;5.05;94.41;100490.63;5072226;28;20255;-57
2023/01/03 03:50:10;;;;;;;28.70;23.23;;;;;;;5.02;94.71;100479.41;5072451;28;20194;-57
2023/01/03 03:52:39;;;;;;;33.60;27.33;;;;;;;5.06;94.78;100472.00;5070990;28;20430;-57
2023/01/03 03:55:12;;;;;;;27.03;22.90;;;;;;;5.12;94.51;100479.97;5072827;28;20251;-57
2023/01/03 03:57:44;;;;;;;26.03;20.67;;;;;;;5.17;94.71;100483.63;5072763;28;20194;-57
2023/01/03 04:00:16;;;;;;;32.30;26.58;;;;;;;5.25;95.03;100479.81;5070633;28;20943;-58
2023/01/03 04:02:46;;;;;;;32.90;24.03;;;;;;;5.27;93.94;100485.00;5072218;28;20241;-57
2023/01/03 04:05:19;;;;;;;30.83;24.40;;;;;;;5.25;93.89;100479.81;5072064;28;20223;-58
2023/01/03 04:07:46;;;;;;;33.97;24.70;;;;;;;5.27;93.92;100480.75;5071586;28;20192;-58
2023/01/03 04:10:18;;;;;;;32.23;24.10;;;;;;;5.23;93.44;100481.41;5071871;28;20196;-57
2023/01/03 04:12:46;;;;;;;32.80;24.67;;;;;;;5.17;93.16;100472.56;5072251;28;20214;-57
2023/01/03 04:15:13;;;;;;;37.20;26.50;;;;;;;5.20;93.28;100482.91;5071819;28;20633;-57
2023/01/03 04:17:40;;;;;;;37.10;26.30;;;;;;;5.24;92.85;100477.22;5071650;28;20193;-57
2023/01/03 04:20:07;;;;;;;38.07;27.00;;;;;;;5.24;93.58;100475.53;5071762;28;20197;-57
2023/01/03 04:22:35;;;;;;;37.22;28.33;;;;;;;5.23;92.63;100472.91;5071311;28;20449;-57
2023/01/03 04:25:02;;;;;;;37.37;26.73;;;;;;;5.21;92.87;100477.94;5071856;28;20193;-57
2023/01/03 04:27:29;;;;;;;36.00;27.63;;;;;;;5.23;92.81;100483.97;5071735;28;20222;-56
2023/01/03 04:29:56;;;;;;;39.80;28.80;;;;;;;5.25;93.34;100478.94;5072759;28;20429;-58
2023/01/03 04:32:23;;;;;;;36.33;26.00;;;;;;;5.25;92.98;100479.81;5073206;28;20906;-57
2023/01/03 04:34:50;;;;;;;34.97;25.37;;;;;;;5.30;93.44;100480.94;5075751;28;20636;-58
2023/01/03 04:37:17;;;;;;;36.80;28.30;;;;;;;5.20;93.41;100480.38;5063635;28;20198;-56
2023/01/03 04:39:45;;;;;;;34.20;28.20;;;;;;;4.97;93.25;100461.31;5055692;28;20195;-56
2023/01/03 04:44:52;;;;;;;43.00;29.87;;;;;;;5.02;94.44;100490.47;5067792;28;20193;-57
2023/01/03 04:47:20;;;;;;;37.93;27.90;;;;;;;5.03;94.29;100486.22;5055742;28;20192;-56
2023/01/03 04:49:47;;;;;;;38.97;29.03;;;;;;;4.93;93.85;100466.16;5055878;28;20251;-56
2023/01/03 04:52:14;;;;;;;36.03;28.20;;;;;;;4.85;94.09;100463.22;5067339;28;20202;-57
2023/01/03 04:54:41;;;;;;;37.20;29.03;;;;;;;4.81;94.34;100466.38;5064795;28;20204;-56
2023/01/03 04:57:10;;;;;;;39.03;28.27;;;;;;;4.93;93.87;100495.06;5055324;28;20193;-57
2023/01/03 04:59:37;;;;;;;44.80;29.63;;;;;;;4.91;94.01;100491.56;5057366;28;20194;-57
2023/01/03 05:02:04;;;;;;;41.78;34.60;;;;;;;4.81;94.77;100470.63;5074143;28;20471;-57
2023/01/03 05:04:31;;;;;;;41.30;32.03;;;;;;;4.94;94.25;100490.84;5075261;28;20218;-57
2023/01/03 05:06:58;;;;;;;43.20;31.50;;;;;;;4.94;93.35;100507.00;5070795;28;20195;-57
2023/01/03 05:09:25;;;;;;;41.57;28.60;;;;;;;4.82;94.06;100511.41;5073925;28;20203;-57
2023/01/03 05:11:52;;;;;;;36.60;28.23;;;;;;;4.81;95.14;100506.25;5074799;28;20198;-57
2023/01/03 05:14:20;;;;;;;40.97;28.20;;;;;;;4.84;94.87;100514.91;5065319;28;20294;-57
2023/01/03 05:16:47;;;;;;;38.40;26.47;;;;;;;4.84;94.97;100508.94;5054548;28;20254;-57
2023/01/03 05:19:14;;;;;;;35.30;26.77;;;;;;;4.84;95.14;100511.50;5054582;28;20246;-57
2023/01/03 05:27:09;;;;;;;43.47;32.47;;;;;;;4.77;95.79;100512.84;5054470;28;20195;-57
2023/01/03 05:29:37;;;;;;;46.27;34.47;;;;;;;4.69;95.60;100511.53;5054580;28;20251;-57
2023/01/03 05:32:04;;;;;;;46.57;34.73;;;;;;;4.71;94.81;100518.47;5054552;28;20271;-57
2023/01/03 05:34:31;;;;;;;49.67;36.67;;;;;;;4.71;94.61;100521.00;5054487;28;20201;-57
2023/01/03 05:36:58;;;;;;;48.43;35.77;;;;;;;4.71;94.32;100515.91;5067943;28;20582;-58
2023/01/03 05:39:25;;;;;;;46.93;34.33;;;;;;;4.72;95.28;100519.34;5061319;28;20192;-58
2023/01/03 05:42:00;;;;;;;43.97;32.93;;;;;;;4.70;95.14;100516.69;5050923;28;20196;-58
2023/01/03 05:44:33;;;;;;;40.10;29.80;;;;;;;4.73;94.13;100524.50;5053350;28;20215;-57
2023/01/03 05:47:03;;;;;;;39.37;29.40;;;;;;;4.68;94.47;100532.69;5054186;28;20250;-58
2023/01/03 05:49:30;;;;;;;56.03;31.30;;;;;;;4.71;94.11;100531.19;5054209;28;20194;-58
2023/01/03 05:51:57;;;;;;;45.13;28.97;;;;;;;4.70;94.19;100526.00;5052233;28;20178;-58
2023/01/03 05:54:24;;;;;;;47.77;31.87;;;;;;;4.74;93.69;100517.75;5052159;28;20671;-57
2023/01/03 05:56:51;;;;;;;41.43;31.83;;;;;;;4.75;94.30;100525.47;5052914;28;20740;-58
2023/01/03 05:59:19;;;;;;;45.37;31.97;;;;;;;4.71;94.27;100507.41;5052278;28;20680;-58
2023/01/03 06:01:46;;;;;;;45.93;32.37;;;;;;;4.77;94.92;100523.03;5051466;28;20187;-58
2023/01/03 06:04:14;;;;;;;43.90;31.83;;;;;;;4.81;94.30;100535.09;5051284;28;20697;-57
2023/01/03 06:06:41;;;;;;;46.60;32.17;;;;;;;4.89;94.29;100531.31;5051514;28;20196;-57
2023/01/03 06:09:08;;;;;;;46.23;31.60;;;;;;;4.93;93.92;100535.81;5052512;28;20195;-61
2023/01/03 06:11:35;;;;;;;48.90;33.27;;;;;;;4.94;93.65;100534.13;5052468;28;20241;-58
2023/01/03 06:14:02;;;;;;;42.20;31.43;;;;;;;4.96;93.48;100537.63;5052634;28;20280;-58
2023/01/03 06:19:28;;;;;;;45.77;30.63;;;;;;;5.00;94.48;100544.66;5012219;28;20201;-57
2023/01/03 06:21:55;;;;;;;49.30;31.30;;;;;;;5.06;93.92;100543.31;5011614;28;20582;-58
2023/01/03 06:24:22;;;;;;;44.43;33.30;;;;;;;4.96;93.85;100515.59;5029858;28;20204;-57
2023/01/03 06:26:49;;;;;;;41.03;30.63;;;;;;;5.17;93.83;100543.88;5053263;28;20194;-59
2023/01/03 06:29:16;;;;;;;48.47;32.87;;;;;;;5.22;93.67;100539.91;5053249;28;20185;-57
2023/01/03 06:31:42;;;;;;;56.00;36.67;;;;;;;5.27;93.54;100543.63;5053232;28;20189;-58
2023/01/03 06:34:09;;;;;;;47.40;36.27;;;;;;;5.32;93.63;100537.97;5053119;28;20205;-58
2023/01/03 06:36:37;;;;;;;56.03;37.40;;;;;;;5.41;93.12;100545.22;5052954;28;20188;-58
2023/01/03 06:39:04;;;;;;;54.60;34.40;;;;;;;5.35;92.77;100527.94;5053222;28;20188;-58
2023/01/03 06:41:31;;;;;;;51.57;36.57;;;;;;;5.55;93.64;100538.31;5052981;28;20221;-58
2023/01/03 06:43:57;;;;;;;57.63;39.33;;;;;;;6.65;93.97;100520.97;5053083;28;20282;-58
2023/01/03 06:54:45;;;;;;;70.50;46.17;;;;;;;7.04;86.40;100538.19;5052750;28;20617;-58
2023/01/03 06:57:12;;;;;;;62.57;42.73;;;;;;;8.16;85.53;100537.25;5052377;28;20657;-58
2023/01/03 06:59:39;;;;;;;71.47;45.73;;;;;;;8.52;80.36;100536.25;5052584;28;20192;-57
2023/01/03 07:02:06;;;;;;;67.13;47.33;;;;;;;8.14;78.80;100534.63;5052647;28;20221;-57
2023/01/03 07:04:33;;;;;;;62.23;41.97;;;;;;;7.75;79.39;100544.84;5052779;28;20614;-57
2023/01/03 07:07:01;;;;;;;62.00;43.63;;;;;;;7.36;80.96;100539.66;5052694;28;20567;-57
2023/01/03 07:09:27;;;;;;;49.90;35.47;;;;;;;7.17;82.18;100543.91;5052509;28;20188;-58
2023/01/03 07:11:54;;;;;;;56.37;40.63;;;;;;;7.06;83.79;100541.69;5052165;28;20196;-57
2023/01/03 07:14:20;;;;;;;54.27;38.73;;;;;;;7.30;84.74;100539.41;5052633;28;20253;-57
2023/01/03 07:16:48;;;;;;;59.73;42.47;;;;;;;7.37;83.35;100546.53;5052109;28;20654;-57
2023/01/03 07:19:17;;;;;;;58.37;42.80;;;;;;;7.00;82.97;100515.00;5052404;28;20250;-57
2023/01/03 07:21:45;;;;;;;52.00;37.87;;;;;;;7.04;84.04;100552.66;5058181;28;20191;-58
2023/01/03 07:24:17;;;;;;;48.70;34.40;;;;;;;6.94;85.20;100543.69;5053346;28;20710;-57
2023/01/03 07:26:44;;;;;;;49.83;35.33;;;;;;;6.71;85.42;100517.84;5068050;28;20547;-57
2023/01/03 07:29:11;;;;;;;62.00;43.28;;;;;;;6.87;86.46;100543.31;5068901;28;20457;-58
2023/01/03 07:31:39;;;;;;;45.30;33.50;;;;;;;6.67;86.57;100518.53;5051785;28;20196;-58
2023/01/03 07:34:06;;;;;;;51.10;34.27;;;;;;;6.75;86.52;100546.19;5051929;28;20207;-58
2023/01/03 07:36:33;;;;;;;41.53;31.37;;;;;;;6.78;87.06;100542.88;5059679;28;20256;-58
2023/01/03 07:39:00;;;;;;;39.37;29.80;;;;;;;6.74;87.58;100539.31;5071666;28;20190;-58
2023/01/03 07:44:09;;;;;;;45.97;31.50;;;;;;;6.92;87.33;100544.44;5071777;28;20225;-57
2023/01/03 07:46:35;;;;;;;40.73;30.23;;;;;;;6.94;87.53;100540.25;5071985;28;20218;-58
2023/01/03 07:49:02;;;;;;;42.37;30.57;;;;;;;6.97;87.64;100542.97;5071749;28;20188;-57
2023/01/03 07:51:29;;;;;;;41.50;30.80;;;;;;;6.88;87.17;100542.50;5071906;28;20280;-57
2023/01/03 07:53:56;;;;;;;48.17;32.57;;;;;;;6.96;88.03;100542.06;5071693;28;20211;-57
2023/01/03 07:56:24;;;;;;;43.30;30.50;;;;;;;7.00;87.56;100541.41;5071111;28;20249;-58
2023/01/03 07:58:52;;;;;;;42.70;30.40;;;;;;;7.07;87.88;100545.13;5069821;28;20198;-58
2023/01/03 08:01:21;;;;;;;47.23;33.37;;;;;;;7.12;87.38;100546.22;5065222;28;20187;-58
2023/01/03 08:03:48;;;;;;;44.17;32.10;;;;;;;7.24;87.13;100548.47;5064385;28;20223;-58
2023/01/03 08:06:16;;;;;;;42.93;30.83;;;;;;;7.33;86.98;100548.91;5068304;28;20244;-58
2023/01/03 08:08:44;;;;;;;48.37;37.07;;;;;;;7.46;86.82;100549.53;5069598;28;20898;-58
2023/01/03 08:13:58;;;;;;;49.37;36.53;;;;;;;7.74;85.08;100543.97;5075467;28;20590;-57
2023/01/03 08:16:25;;;;;;;60.63;37.90;;;;;;;7.79;85.02;100539.91;5074774;28;20281;-59
2023/01/03 08:18:52;;;;;;;50.83;38.23;;;;;;;7.88;84.74;100537.78;5069846;28;20199;-57
2023/01/03 08:21:19;;;;;;;57.57;38.07;;;;;;;7.95;84.34;100537.22;5074918;28;20229;-58
2023/01/03 08:23:47;;;;;;;51.17;39.03;;;;;;;7.98;83.95;100531.34;5072528;28;20217;-57
2023/01/03 08:26:16;;;;;;;48.57;35.17;;;;;;;8.11;83.77;100538.72;5068878;28;20187;-59
2023/01/03 08:28:44;;;;;;;46.37;35.30;;;;;;;8.23;83.37;100535.03;5070584;28;20196;-58
2023/01/03 08:31:15;;;;;;;62.33;40.27;;;;;;;8.25;82.73;100524.84;5072261;28;20195;-57
2023/01/03 08:33:50;;;;;;;56.17;44.05;;;;;;;8.27;83.01;100500.19;5069308;28;20458;-57
2023/01/03 08:36:18;;;;;;;54.47;38.80;;;;;;;8.48;82.06;100518.16;5073182;28;20187;-57
2023/01/03 08:38:48;;;;;;;53.37;37.90;;;;;;;8.50;82.02;100519.06;5074559;28;20570;-58
2023/01/03 08:41:20;;;;;;;59.20;39.10;;;;;;;8.44;81.63;100522.25;5072727;28;20172;-58
2023/01/03 08:43:48;;;;;;;57.13;38.10;;;;;;;8.45;81.81;100518.91;5074609;28;20191;-57
2023/01/03 08:46:17;;;;;;;48.83;36.63;;;;;;;8.44;81.73;100513.69;5073565;28;20198;-56
2023/01/03 08:48:49;;;;;;;57.90;37.43;;;;;;;8.39;81.67;100516.06;5074859;28;20612;-57
2023/01/03 08:51:16;;;;;;;53.30;35.07;;;;;;;8.41;81.72;100518.69;5073964;28;20549;-58
2023/01/03 08:53:43;;;;;;;54.57;35.63;;;;;;;8.35;81.93;100500.53;5075012;28;20324;-58
2023/01/03 08:56:10;;;;;;;49.00;33.27;;;;;;;8.23;82.09;100480.38;5074600;28;20650;-57
2023/01/03 08:58:36;;;;;;;48.67;34.40;;;;;;;8.42;82.28;100502.53;5074805;28;20557;-58
2023/01/03 09:01:05;;;;;;;43.90;32.80;;;;;;;8.48;82.78;100493.41;5067697;28;20210;-58
2023/01/03 09:03:33;;;;;;;47.30;33.40;;;;;;;8.54;82.27;100501.31;5075078;28;20191;-58
2023/01/03 09:06:00;;;;;;;55.07;32.33;;;;;;;8.54;82.40;100477.41;5074766;28;20222;-57
2023/01/03 09:08:30;;;;;;;46.47;32.63;;;;;;;8.82;81.38;100496.47;5063336;28;20215;-58
2023/01/03 09:10:57;;;;;;;45.80;32.30;;;;;;;8.81;81.44;100493.88;5071841;28;20195;-57
2023/01/03 09:13:23;;;;;;;44.40;30.93;;;;;;;8.95;80.81;100494.41;5054154;28;20720;-57
2023/01/03 09:16:00;;;;;;;43.40;31.73;;;;;;;9.05;80.24;100484.56;5054778;28;20540;-58
2023/01/03 09:18:27;;;;;;;45.80;31.17;;;;;;;9.18;79.52;100486.75;5054201;28;20573;-57
2023/01/03 09:20:55;;;;;;;41.07;30.07;;;;;;;9.24;79.02;100468.16;5054235;28;20196;-58
2023/01/03 09:23:22;;;;;;;48.40;32.27;;;;;;;9.37;78.49;100472.91;5053434;28;20188;-57
2023/01/03 09:25:49;;;;;;;45.80;34.30;;;;;;;9.47;78.06;100469.91;5052484;28;20239;-58
2023/01/03 09:28:15;;;;;;;49.00;33.93;;;;;;;9.55;77.63;100465.03;5053926;28;20659;-59
2023/01/03 09:30:42;;;;;;;41.97;31.93;;;;;;;9.65;76.98;100467.09;5054238;28;20219;-58
2023/01/03 09:33:09;;;;;;;49.40;33.90;;;;;;;9.71;75.96;100450.22;5054093;28;20193;-57
2023/01/03 09:35:37;;;;;;;46.47;32.87;;;;;;;9.87;75.45;100451.63;5053985;28;20670;-59
2023/01/03 09:38:06;;;;;;;51.22;37.50;;;;;;;9.90;74.63;100426.94;5052861;28;20436;-59
2023/01/03 09:40:38;;;;;;;48.27;34.60;;;;;;;10.16;73.69;100443.25;5053950;28;20199;-58
2023/01/03 09:43:14;;;;;;;51.70;34.97;;;;;;;10.25;72.75;100435.81;5054128;28;20242;-58
2023/01/03 09:45:45;;;;;;;52.43;35.67;;;;;;;10.30;72.78;100436.00;5053874;28;20265;-58
2023/01/03 09:48:16;;;;;;;48.30;35.17;;;;;;;10.33;72.82;100433.53;5070678;28;20747;-59
2023/01/03 09:50:44;;;;;;;48.00;36.73;;;;;;;10.43;72.24;100426.16;5071266;28;20195;-58
2023/01/03 10:05:08;;;;;;;43.90;35.13;;;;;;;10.72;69.98;100398.78;5073696;28;20230;-58
2023/01/03 10:07:59;;;;;;;47.00;32.60;;;;;;;10.85;68.76;100389.75;5073856;28;20616;-57
2023/01/03 10:10:38;;;;;;;45.63;36.60;;;;;;;10.86;69.71;100376.91;5072260;28;20990;-59
2023/01/03 10:13:14;;;;;;;47.63;35.23;;;;;;;11.18;67.78;100388.97;5073231;28;20211;-59
2023/01/03 10:15:47;;;;;;;55.17;36.70;;;;;;;11.25;67.45;100388.34;5074316;28;20292;-59
2023/01/03 10:18:28;;;;;;;50.73;36.77;;;;;;;11.36;66.98;100383.50;5073017;28;20609;-59
2023/01/03 10:21:01;;;;;;;48.97;38.20;;;;;;;11.40;66.70;100361.28;5072792;28;20196;-58
2023/01/03 10:23:29;;;;;;;51.33;34.73;;;;;;;11.52;65.29;100372.78;5073038;28;20654;-58
2023/01/03 10:25:57;;;;;;;44.70;34.43;;;;;;;11.60;65.26;100372.97;5072838;28;20220;-59
2023/01/03 10:28:26;;;;;;;46.87;34.87;;;;;;;11.51;64.61;100347.84;5072550;28;20196;-57
2023/01/03 10:31:17;;;;;;;57.87;39.87;;;;;;;11.65;65.09;100363.66;5073065;28;20211;-59
2023/01/03 10:33:46;;;;;;;52.80;39.00;;;;;;;11.69;64.59;100363.81;5072310;28;20570;-58
2023/01/03 10:36:13;;;;;;;51.60;38.80;;;;;;;11.73;65.20;100354.44;5071650;28;20199;-59
2023/01/03 10:38:41;;;;;;;50.77;39.37;;;;;;;11.79;65.17;100354.63;5067499;28;20192;-59
2023/01/03 10:41:20;;;;;;;50.00;37.33;;;;;;;11.84;64.14;100346.16;5069058;28;20199;-59
2023/01/03 10:43:57;;;;;;;51.73;35.20;;;;;;;11.88;64.07;100349.69;5052890;28;20673;-58
2023/01/03 10:46:26;;;;;;;46.13;35.77;;;;;;;11.87;63.59;100345.38;5063544;28;20293;-59
2023/01/03 10:48:56;;;;;;;45.43;34.77;;;;;;;11.94;63.67;100336.09;5052215;28;20192;-58
2023/01/03 10:51:31;;;;;;;50.53;36.00;;;;;;;11.96;63.20;100330.16;5052107;28;20729;-58
2023/01/03 10:54:00;;;;;;;48.67;34.33;;;;;;;12.01;63.41;100327.66;5052557;28;20282;-59
2023/01/03 10:56:30;;;;;;;49.33;37.00;;;;;;;12.10;63.21;100330.47;5052616;28;20651;-59
2023/01/03 10:59:16;;;;;;;52.87;36.83;;;;;;;12.20;62.78;100320.41;5058516;28;20617;-59
2023/01/03 11:01:56;;;;;;;50.67;37.43;;;;;;;12.25;62.81;100317.97;5062436;28;20616;-59
2023/01/03 11:04:23;;;;;;;49.47;37.30;;;;;;;12.31;61.87;100320.66;5052651;28;20207;-58
2023/01/03 11:07:02;;;;;;;46.87;35.10;;;;;;;12.39;62.30;100309.69;5052081;28;20195;-57
2023/01/03 11:09:35;;;;;;;48.83;36.30;;;;;;;12.44;62.13;100305.50;5052148;28;20194;-59
2023/01/03 11:12:12;;;;;;;51.30;36.00;;;;;;;12.52;61.86;100305.69;5052069;28;20198;-59
2023/01/03 11:14:39;;;;;;;53.88;38.45;;;;;;;12.61;61.36;100302.44;5051381;28;20512;-58
2023/01/03 11:17:12;;;;;;;47.80;35.50;;;;;;;12.75;60.69;100293.25;5052188;28;20713;-58
2023/01/03 11:19:39;;;;;;;47.50;35.07;;;;;;;12.83;60.88;100289.97;5052337;28;20659;-59
2023/01/03 11:22:13;;;;;;;43.30;32.87;;;;;;;12.90;60.18;100290.97;5052196;28;20203;-58
2023/01/03 11:25:16;;;;;;;47.83;32.10;;;;;;;12.96;59.74;100281.63;5052156;28;20309;-58
2023/01/03 11:28:07;;;;;;;31.77;25.83;;;;;;;13.00;58.60;100275.69;5010663;28;20201;-58
2023/01/03 11:30:40;;;;;;;38.40;27.90;;;;;;;13.08;57.08;100273.28;5010336;28;20541;-59
2023/01/03 11:33:23;;;;;;;30.20;25.97;;;;;;;13.11;57.33;100270.78;5010743;28;20236;-58
2023/01/03 11:36:03;;;;;;;41.27;27.23;;;;;;;13.18;56.42;100275.22;5010578;28;20201;-59
2023/01/03 11:38:46;;;;;;;35.33;26.93;;;;;;;13.23;56.20;100265.84;5010300;28;20277;-59
2023/01/03 11:41:34;;;;;;;35.83;28.13;;;;;;;13.17;56.42;100249.38;5026017;28;20197;-58
2023/01/03 11:44:35;;;;;;;42.37;30.17;;;;;;;13.26;56.30;100253.00;5010506;28;20190;-59
2023/01/03 11:47:15;;;;;;;40.08;32.05;;;;;;;13.40;56.00;100253.25;5009717;28;20434;-57
2023/01/03 11:49:56;;;;;;;42.30;30.97;;;;;;;13.47;56.17;100255.94;5010606;28;20197;-59
2023/01/03 11:52:29;;;;;;;42.70;29.97;;;;;;;13.48;55.85;100243.91;5010291;28;20198;-59
2023/01/03 11:55:17;;;;;;;40.00;28.17;;;;;;;13.54;55.15;100244.00;5012012;28;20284;-59
2023/01/03 11:57:56;;;;;;;41.80;31.60;;;;;;;13.44;55.36;100218.88;5029233;28;20642;-59
2023/01/03 12:00:29;;;;;;;45.23;30.93;;;;;;;13.50;55.93;100212.09;5029570;28;20680;-59
2023/01/03 12:03:08;;;;;;;44.63;31.83;;;;;;;13.47;55.64;100200.84;5070987;28;20196;-58
2023/01/03 12:05:48;;;;;;;39.70;30.90;;;;;;;13.63;55.90;100231.22;5071421;28;20628;-59
2023/01/03 12:08:44;;;;;;;42.00;30.97;;;;;;;13.65;55.38;100216.66;5071466;28;20199;-59
2023/01/03 12:11:25;;;;;;;44.40;30.50;;;;;;;13.70;55.22;100232.19;5071568;28;20277;-58
2023/01/03 12:14:00;;;;;;;43.70;31.07;;;;;;;13.70;54.45;100209.84;5071878;28;20610;-59
2023/01/03 12:16:34;;;;;;;38.73;31.00;;;;;;;13.86;54.52;100218.66;5071697;28;20714;-59
2023/01/03 12:19:06;;;;;;;40.83;31.43;;;;;;;13.90;54.52;100213.56;5072115;28;20277;-59
2023/01/03 12:21:35;;;;;;;43.27;31.30;;;;;;;13.93;53.77;100211.03;5072053;28;20202;-59
2023/01/03 12:24:10;;;;;;;39.47;30.07;;;;;;;13.98;53.75;100214.53;5071720;28;20189;-58
2023/01/03 12:26:41;;;;;;;43.37;31.10;;;;;;;14.00;53.90;100206.81;5071273;28;20644;-59
2023/01/03 12:29:16;;;;;;;44.27;32.10;;;;;;;14.01;53.21;100199.06;5071362;28;20255;-59
2023/01/03 12:31:49;;;;;;;49.33;30.33;;;;;;;13.99;53.38;100189.56;5071166;28;20183;-59